createdAt,value
2019-05-29T00:01:34.353Z,54.61
2019-05-29T00:04:02.979Z,54.63
2019-05-29T00:06:31.553Z,54.73
2019-05-29T00:09:00.202Z,54.87
2019-05-29T00:11:28.890Z,54.65
2019-05-29T00:13:57.481Z,54.68
2019-05-29T00:16:26.091Z,54.36
2019-05-29T00:18:58.186Z,53.98
2019-05-29T00:21:25.397Z,53.50
2019-05-29T00:23:53.964Z,53.50
2019-05-29T00:26:22.658Z,53.42
2019-05-29T00:28:51.236Z,53.90
2019-05-29T00:31:20.400Z,53.89
2019-05-29T00:33:49.094Z,54.25
2019-05-29T00:36:17.615Z,54.11
2019-05-29T00:38:46.257Z,53.56
2019-05-29T00:41:15.109Z,53.24
2019-05-29T00:43:43.914Z,54.52
2019-05-29T00:46:13.424Z,54.80
2019-05-29T00:48:42.167Z,55.17
2019-05-29T00:51:11.000Z,55.45
2019-05-29T00:53:39.686Z,55.16
2019-05-29T00:56:08.538Z,53.93
2019-05-29T00:58:37.194Z,53.08
2019-05-29T01:01:05.831Z,53.00
2019-05-29T01:03:36.094Z,53.37
2019-05-29T01:06:04.745Z,53.80
2019-05-29T01:08:33.388Z,53.59
2019-05-29T01:11:01.928Z,53.82
2019-05-29T01:13:30.581Z,54.21
2019-05-29T01:15:59.240Z,54.43
2019-05-29T01:18:28.167Z,54.07
2019-05-29T01:20:56.721Z,54.85
2019-05-29T01:23:25.374Z,54.68
2019-05-29T01:25:54.047Z,56.74
2019-05-29T01:28:23.143Z,56.87
2019-05-29T01:30:51.798Z,56.97
2019-05-29T01:33:23.331Z,57.79
2019-05-29T01:35:51.224Z,58.36
2019-05-29T01:38:19.906Z,57.67
2019-05-29T01:40:48.545Z,59.07
2019-05-29T01:43:17.515Z,58.24
2019-05-29T01:45:46.223Z,57.12
2019-05-29T01:48:15.408Z,57.71
2019-05-29T01:50:44.084Z,57.82
2019-05-29T01:53:13.310Z,56.95
2019-05-29T01:55:41.939Z,56.95
2019-05-29T01:58:10.607Z,57.32
2019-05-29T02:00:39.291Z,57.35
2019-05-29T02:03:07.934Z,57.35
2019-05-29T02:05:36.604Z,57.26
2019-05-29T02:08:05.297Z,57.47
2019-05-29T02:10:33.941Z,57.68
2019-05-29T02:13:03.154Z,58.06
2019-05-29T02:15:33.989Z,57.64
2019-05-29T02:18:02.281Z,57.23
2019-05-29T02:20:30.964Z,56.81
2019-05-29T02:22:59.684Z,56.81
2019-05-29T02:25:28.545Z,56.66
2019-05-29T02:27:57.122Z,56.88
2019-05-29T02:30:28.518Z,56.88
2019-05-29T02:32:56.222Z,56.12
2019-05-29T02:35:26.976Z,56.47
2019-05-29T02:37:55.290Z,57.00
2019-05-29T02:40:25.933Z,56.87
2019-05-29T02:42:54.656Z,56.34
2019-05-29T02:45:26.147Z,56.34
2019-05-29T02:47:53.638Z,57.00
2019-05-29T02:50:23.916Z,56.87
2019-05-29T02:52:52.744Z,56.87
2019-05-29T02:55:22.718Z,56.62
2019-05-29T02:57:51.434Z,56.92
2019-05-29T03:00:23.444Z,56.87
2019-05-29T03:02:52.550Z,56.87
2019-05-29T03:05:22.000Z,57.56
2019-05-29T03:07:50.672Z,57.69
2019-05-29T03:10:20.128Z,58.35
2019-05-29T03:12:48.865Z,57.91
2019-05-29T03:15:18.224Z,57.91
2019-05-29T03:17:46.938Z,58.06
2019-05-29T03:20:15.572Z,58.19
2019-05-29T03:22:44.248Z,57.63
2019-05-29T03:25:12.905Z,57.56
2019-05-29T03:27:41.476Z,57.40
2019-05-29T03:30:11.840Z,56.81
2019-05-29T03:32:47.364Z,57.72
2019-05-29T03:35:12.309Z,57.90
2019-05-29T03:37:40.920Z,57.85
2019-05-29T03:40:09.679Z,57.85
2019-05-29T03:42:38.960Z,57.49
2019-05-29T03:45:08.734Z,56.95
2019-05-29T03:47:37.502Z,56.23
2019-05-29T03:50:07.754Z,55.17
2019-05-29T03:52:36.571Z,55.69
2019-05-29T03:55:08.238Z,55.46
2019-05-29T03:57:38.159Z,54.22
2019-05-29T04:00:08.845Z,54.38
2019-05-29T04:02:38.412Z,53.59
2019-05-29T04:05:08.635Z,53.21
2019-05-29T04:07:38.136Z,54.62
2019-05-29T04:10:07.523Z,51.92
2019-05-29T04:12:38.086Z,49.34
2019-05-29T04:15:06.990Z,48.20
2019-05-29T04:17:37.872Z,47.11
2019-05-29T04:20:07.337Z,45.58
2019-05-29T04:22:39.563Z,43.92
2019-05-29T04:25:08.303Z,42.87
2019-05-29T04:27:39.887Z,42.96
2019-05-29T04:30:09.021Z,41.98
2019-05-29T04:32:38.663Z,42.60
2019-05-29T04:35:07.500Z,42.37
2019-05-29T04:37:36.972Z,42.84
2019-05-29T04:40:07.450Z,42.86
2019-05-29T04:42:37.647Z,43.03
2019-05-29T04:45:08.340Z,43.07
2019-05-29T04:47:37.386Z,42.67
2019-05-29T04:50:07.678Z,43.48
2019-05-29T04:52:37.861Z,43.83
2019-05-29T04:55:06.950Z,43.03
2019-05-29T04:57:35.617Z,43.67
2019-05-29T05:00:07.771Z,43.72
2019-05-29T05:02:37.274Z,43.35
2019-05-29T05:05:07.586Z,42.91
2019-05-29T05:07:37.352Z,42.15
2019-05-29T05:10:07.216Z,42.39
2019-05-29T05:12:37.830Z,43.60
2019-05-29T05:15:07.496Z,44.69
2019-05-29T05:17:36.226Z,45.91
2019-05-29T05:20:05.848Z,47.09
2019-05-29T05:22:34.498Z,47.97
2019-05-29T05:25:03.663Z,46.27
2019-05-29T05:27:32.310Z,45.13
2019-05-29T05:30:00.973Z,44.12
2019-05-29T05:32:30.570Z,43.52
2019-05-29T05:34:59.237Z,41.90
2019-05-29T05:37:27.886Z,42.01
2019-05-29T05:39:56.576Z,41.87
2019-05-29T05:42:25.232Z,41.57
2019-05-29T05:44:53.885Z,40.63
2019-05-29T05:47:22.586Z,42.07
2019-05-29T05:49:51.258Z,40.97
2019-05-29T05:52:19.989Z,40.08
2019-05-29T05:54:48.767Z,39.81
2019-05-29T05:57:17.466Z,39.90
2019-05-29T05:59:46.101Z,40.76
2019-05-29T06:02:20.012Z,40.57
2019-05-29T06:04:48.815Z,41.11
2019-05-29T06:07:17.487Z,40.28
2019-05-29T06:09:46.056Z,40.42
2019-05-29T06:12:14.759Z,40.80
2019-05-29T06:14:43.401Z,39.70
2019-05-29T06:17:12.129Z,40.27
2019-05-29T06:19:41.170Z,39.61
2019-05-29T06:22:09.947Z,42.44
2019-05-29T06:24:38.887Z,40.29
2019-05-29T06:27:07.568Z,39.37
2019-05-29T06:29:37.132Z,38.33
2019-05-29T06:32:05.812Z,40.25
2019-05-29T06:34:35.680Z,40.48
2019-05-29T06:37:04.350Z,39.64
2019-05-29T06:39:33.497Z,38.97
2019-05-29T06:42:02.170Z,39.64
2019-05-29T06:44:30.824Z,38.88
2019-05-29T06:46:59.469Z,38.58
2019-05-29T06:49:28.162Z,38.59
2019-05-29T06:51:56.806Z,39.50
2019-05-29T06:54:25.482Z,38.10
2019-05-29T06:56:54.178Z,38.42
2019-05-29T06:59:22.829Z,40.55
2019-05-29T07:01:51.606Z,39.34
2019-05-29T07:04:20.260Z,38.88
2019-05-29T07:06:49.101Z,38.13
2019-05-29T07:09:17.858Z,38.12
2019-05-29T07:11:47.541Z,36.88
2019-05-29T07:14:16.334Z,37.04
2019-05-29T07:16:54.875Z,36.83
2019-05-29T07:19:29.364Z,37.20
2019-05-29T07:21:52.185Z,36.47
2019-05-29T07:24:20.901Z,35.61
2019-05-29T07:26:49.591Z,38.43
2019-05-29T07:29:18.308Z,37.24
2019-05-29T07:31:47.330Z,36.73
2019-05-29T07:34:16.034Z,35.81
2019-05-29T07:36:45.988Z,36.40
2019-05-29T07:39:14.765Z,36.20
2019-05-29T07:41:43.711Z,36.19
2019-05-29T07:44:12.532Z,34.88
2019-05-29T07:46:42.261Z,34.41
2019-05-29T07:49:11.039Z,34.18
2019-05-29T07:51:40.503Z,35.80
2019-05-29T07:54:09.343Z,37.24
2019-05-29T07:56:38.363Z,36.23
2019-05-29T07:59:07.134Z,37.06
2019-05-29T08:01:35.795Z,36.72
2019-05-29T08:04:04.433Z,35.51
2019-05-29T08:06:33.115Z,36.24
2019-05-29T08:09:01.789Z,36.18
2019-05-29T08:11:30.471Z,35.79
2019-05-29T08:13:59.151Z,35.18
2019-05-29T08:16:27.870Z,35.30
2019-05-29T08:18:56.540Z,34.81
2019-05-29T08:21:25.294Z,35.00
2019-05-29T08:23:53.914Z,35.61
2019-05-29T08:26:22.653Z,35.48
2019-05-29T08:28:51.432Z,35.65
2019-05-29T08:31:20.085Z,33.36
2019-05-29T08:33:49.023Z,35.55
2019-05-29T08:36:17.720Z,34.59
2019-05-29T08:38:47.408Z,36.11
2019-05-29T08:41:16.111Z,35.58
2019-05-29T08:43:45.403Z,35.50
2019-05-29T08:46:15.226Z,34.91
2019-05-29T08:48:43.904Z,34.80
2019-05-29T08:51:12.628Z,34.28
2019-05-29T08:53:42.544Z,35.99
2019-05-29T08:56:11.569Z,34.81
2019-05-29T08:58:42.786Z,34.66
2019-05-29T09:01:11.702Z,34.09
2019-05-29T09:03:40.391Z,33.90
2019-05-29T09:06:11.519Z,32.94
2019-05-29T09:08:39.483Z,33.14
2019-05-29T09:11:08.139Z,33.84
2019-05-29T09:13:36.842Z,32.83
2019-05-29T09:16:05.489Z,32.30
2019-05-29T09:18:34.249Z,30.86
2019-05-29T09:21:04.248Z,30.16
2019-05-29T09:23:33.246Z,29.22
2019-05-29T09:26:14.285Z,30.07
2019-05-29T09:28:33.225Z,29.64
2019-05-29T09:31:01.808Z,31.11
2019-05-29T09:33:30.495Z,30.23
2019-05-29T09:35:59.334Z,30.92
2019-05-29T09:38:28.013Z,31.35
2019-05-29T09:40:56.694Z,33.13
2019-05-29T09:43:29.995Z,32.96
2019-05-29T09:45:55.878Z,32.55
2019-05-29T09:48:27.470Z,32.66
2019-05-29T09:50:55.044Z,31.79
2019-05-29T09:53:23.796Z,32.52
2019-05-29T09:55:54.171Z,32.83
2019-05-29T09:58:22.993Z,33.07
2019-05-29T10:01:09.558Z,32.42
2019-05-29T10:03:25.019Z,32.34
2019-05-29T10:05:57.286Z,30.76
2019-05-29T10:08:26.243Z,31.02
2019-05-29T10:11:02.669Z,30.86
2019-05-29T10:13:25.615Z,30.68
2019-05-29T10:15:55.951Z,31.03
2019-05-29T10:18:31.904Z,32.00
2019-05-29T10:20:56.503Z,32.02
2019-05-29T10:23:25.779Z,32.10
2019-05-29T10:25:56.406Z,33.05
2019-05-29T10:28:48.343Z,32.58
2019-05-29T10:31:03.106Z,32.96
2019-05-29T10:33:28.990Z,32.71
2019-05-29T10:38:48.652Z,30.96
2019-05-29T10:41:20.357Z,31.13
2019-05-29T10:43:54.194Z,31.02
2019-05-29T10:46:22.891Z,28.88
2019-05-29T10:48:54.205Z,30.77
2019-05-29T10:51:22.105Z,28.60
2019-05-29T10:53:53.098Z,30.18
2019-05-29T10:56:21.646Z,30.10
2019-05-29T10:58:56.203Z,30.15
2019-05-29T11:01:20.878Z,31.84
2019-05-29T11:03:52.149Z,31.97
2019-05-29T11:06:20.687Z,31.85
2019-05-29T11:08:49.996Z,31.19
2019-05-29T11:11:18.827Z,30.34
2019-05-29T11:13:48.645Z,31.26
2019-05-29T11:16:17.393Z,31.95
2019-05-29T11:18:47.371Z,32.82
2019-05-29T11:21:16.464Z,31.60
2019-05-29T11:23:45.113Z,32.71
2019-05-29T11:26:13.797Z,33.10
2019-05-29T11:28:42.505Z,32.88
2019-05-29T11:31:11.241Z,34.24
2019-05-29T11:33:40.101Z,32.30
2019-05-29T11:36:12.887Z,33.10
2019-05-29T11:38:39.270Z,33.24
2019-05-29T11:41:25.146Z,32.92
2019-05-29T11:43:38.765Z,32.16
2019-05-29T11:46:07.450Z,32.02
2019-05-29T11:48:36.127Z,32.60
2019-05-29T11:51:04.816Z,32.39
2019-05-29T11:53:33.510Z,32.25
2019-05-29T11:56:02.230Z,33.49
2019-05-29T11:58:31.871Z,32.02
2019-05-29T12:01:01.282Z,32.22
2019-05-29T12:03:29.990Z,31.70
2019-05-29T12:05:59.420Z,32.57
2019-05-29T12:08:30.828Z,33.04
2019-05-29T12:10:59.535Z,33.64
2019-05-29T12:13:28.352Z,32.60
2019-05-29T12:15:57.716Z,32.46
2019-05-29T12:18:26.449Z,32.15
2019-05-29T12:20:56.246Z,32.17
2019-05-29T12:23:27.041Z,32.63
2019-05-29T12:26:16.666Z,32.54
2019-05-29T12:28:25.708Z,32.90
2019-05-29T12:30:55.178Z,32.45
2019-05-29T12:33:23.964Z,32.90
2019-05-29T12:36:01.287Z,32.54
2019-05-29T12:38:29.922Z,31.97
2019-05-29T12:40:59.821Z,31.14
2019-05-29T12:43:28.556Z,30.64
2019-05-29T12:45:57.802Z,32.10
2019-05-29T12:48:26.559Z,30.95
2019-05-29T12:50:56.068Z,31.14
2019-05-29T12:53:30.112Z,30.80
2019-05-29T12:55:56.102Z,31.57
2019-05-29T12:58:24.866Z,31.54
2019-05-29T13:00:54.482Z,31.53
2019-05-29T13:03:23.255Z,31.80
2019-05-29T13:05:52.048Z,32.14
2019-05-29T13:08:20.713Z,32.04
2019-05-29T13:10:49.414Z,32.42
2019-05-29T13:13:18.299Z,32.05
2019-05-29T13:15:46.945Z,32.49
2019-05-29T13:18:15.577Z,33.17
2019-05-29T13:20:44.350Z,32.59
2019-05-29T13:23:13.154Z,32.50
2019-05-29T13:25:41.861Z,32.17
2019-05-29T13:28:10.534Z,32.79
2019-05-29T13:30:39.280Z,33.27
2019-05-29T13:33:09.038Z,33.12
2019-05-29T13:35:37.882Z,32.58
2019-05-29T13:38:07.368Z,33.14
2019-05-29T13:40:36.267Z,32.78
2019-05-29T13:43:13.968Z,32.91
2019-05-29T13:45:35.683Z,31.38
2019-05-29T13:48:05.428Z,31.82
2019-05-29T13:50:34.213Z,31.69
2019-05-29T13:53:03.542Z,31.89
2019-05-29T13:55:32.263Z,30.67
2019-05-29T13:58:01.668Z,31.40
2019-05-29T14:00:34.465Z,31.37
2019-05-29T14:03:02.469Z,31.22
2019-05-29T14:05:31.420Z,31.65
2019-05-29T14:08:00.611Z,31.57
2019-05-29T14:10:29.314Z,32.16
2019-05-29T14:12:58.924Z,31.72
2019-05-29T14:15:27.674Z,32.25
2019-05-29T14:17:56.331Z,32.31
2019-05-29T14:20:26.191Z,32.23
2019-05-29T14:22:54.941Z,32.13
2019-05-29T14:25:23.571Z,32.49
2019-05-29T14:27:52.288Z,32.59
2019-05-29T14:30:20.937Z,32.37
2019-05-29T14:32:49.643Z,32.48
2019-05-29T14:35:18.458Z,32.44
2019-05-29T14:37:47.120Z,32.27
2019-05-29T14:40:17.019Z,32.38
2019-05-29T14:42:45.756Z,32.44
2019-05-29T14:45:15.017Z,32.46
2019-05-29T14:47:43.680Z,32.23
2019-05-29T14:50:13.367Z,32.62
2019-05-29T14:52:42.168Z,31.42
2019-05-29T14:55:17.418Z,31.86
2019-05-29T14:57:41.530Z,31.99
2019-05-29T15:00:23.141Z,31.91
2019-05-29T15:02:42.859Z,32.25
2019-05-29T15:05:12.368Z,32.33
2019-05-29T15:07:41.996Z,31.93
2019-05-29T15:10:24.006Z,32.14
2019-05-29T15:12:41.665Z,32.27
2019-05-29T15:15:11.895Z,31.99
2019-05-29T15:17:41.289Z,32.20
2019-05-29T15:20:12.602Z,32.59
2019-05-29T15:22:40.833Z,32.86
2019-05-29T15:25:18.113Z,32.48
2019-05-29T15:27:40.413Z,33.01
2019-05-29T15:30:11.362Z,32.95
2019-05-29T15:32:40.788Z,32.76
2019-05-29T15:35:14.447Z,32.81
2019-05-29T15:37:41.242Z,33.31
2019-05-29T15:40:11.020Z,32.74
2019-05-29T15:42:39.821Z,32.95
2019-05-29T15:45:10.056Z,33.23
2019-05-29T15:47:38.719Z,33.37
2019-05-29T15:50:13.519Z,32.86
2019-05-29T15:52:42.673Z,31.99
2019-05-29T15:55:27.472Z,32.11
2019-05-29T15:57:42.124Z,31.75
2019-05-29T16:00:13.592Z,32.02
2019-05-29T16:02:42.434Z,31.99
2019-05-29T16:05:13.138Z,32.16
2019-05-29T16:07:41.913Z,32.46
2019-05-29T16:10:14.799Z,32.07
2019-05-29T16:12:43.019Z,31.91
2019-05-29T16:15:13.269Z,32.38
2019-05-29T16:17:42.048Z,32.35
2019-05-29T16:20:12.328Z,32.36
2019-05-29T16:22:42.041Z,32.52
2019-05-29T16:25:11.183Z,32.00
2019-05-29T16:27:39.972Z,32.41
2019-05-29T16:30:09.521Z,32.41
2019-05-29T16:32:38.297Z,32.34
2019-05-29T16:35:07.495Z,32.55
2019-05-29T16:37:36.128Z,32.87
2019-05-29T16:40:09.681Z,33.10
2019-05-29T16:42:38.585Z,32.97
2019-05-29T16:45:09.677Z,33.07
2019-05-29T16:47:38.514Z,33.00
2019-05-29T16:50:12.964Z,33.20
2019-05-29T16:52:41.773Z,33.01
2019-05-29T16:55:10.999Z,32.86
2019-05-29T16:57:39.747Z,32.91
2019-05-29T17:00:09.715Z,32.84
2019-05-29T17:02:39.092Z,32.75
2019-05-29T17:05:08.179Z,33.17
2019-05-29T17:07:36.942Z,33.17
2019-05-29T17:10:10.355Z,34.59
2019-05-29T17:12:39.137Z,33.63
2019-05-29T17:15:12.764Z,33.27
2019-05-29T17:17:41.508Z,34.93
2019-05-29T17:20:10.857Z,33.95
2019-05-29T17:22:39.541Z,33.71
2019-05-29T17:25:08.583Z,33.54
2019-05-29T17:27:37.277Z,33.94
2019-05-29T17:30:08.015Z,36.48
2019-05-29T17:32:36.668Z,36.29
2019-05-29T17:35:09.280Z,35.12
2019-05-29T17:37:38.176Z,34.75
2019-05-29T17:40:07.753Z,35.97
2019-05-29T17:42:36.590Z,35.20
2019-05-29T17:45:12.718Z,35.51
2019-05-29T17:47:41.949Z,35.95
2019-05-29T17:50:10.627Z,35.70
2019-05-29T17:52:39.256Z,35.99
2019-05-29T17:55:08.696Z,35.86
2019-05-29T17:57:37.437Z,36.29
2019-05-29T18:00:13.415Z,35.62
2019-05-29T18:02:51.445Z,35.41
2019-05-29T18:05:14.307Z,35.54
2019-05-29T18:07:43.147Z,35.68
2019-05-29T18:10:12.528Z,36.47
2019-05-29T18:12:41.353Z,37.08
2019-05-29T18:15:10.838Z,37.21
2019-05-29T18:17:39.498Z,37.67
2019-05-29T18:20:09.754Z,38.11
2019-05-29T18:22:39.131Z,38.34
2019-05-29T18:25:08.589Z,39.64
2019-05-29T18:27:37.232Z,39.49
2019-05-29T18:30:09.695Z,39.37
2019-05-29T18:32:52.377Z,39.34
2019-05-29T18:35:21.066Z,40.41
2019-05-29T18:37:49.723Z,39.89
2019-05-29T18:40:20.240Z,39.98
2019-05-29T18:42:49.007Z,39.67
2019-05-29T18:45:20.987Z,39.42
2019-05-29T18:47:48.465Z,39.29
2019-05-29T18:50:17.366Z,39.75
2019-05-29T18:52:45.956Z,39.01
2019-05-29T18:55:15.306Z,39.60
2019-05-29T18:57:44.603Z,39.85
2019-05-29T19:00:14.032Z,39.46
2019-05-29T19:02:47.638Z,39.78
2019-05-29T19:05:16.931Z,40.59
2019-05-29T19:07:45.667Z,40.58
2019-05-29T19:10:14.521Z,41.26
2019-05-29T19:12:43.359Z,40.93
2019-05-29T19:15:12.630Z,40.26
2019-05-29T19:17:41.303Z,41.16
2019-05-29T19:20:10.503Z,41.57
2019-05-29T19:22:39.162Z,41.75
2019-05-29T19:25:08.201Z,42.57
2019-05-29T19:27:41.318Z,42.80
2019-05-29T19:30:10.953Z,42.36
2019-05-29T19:32:39.607Z,42.64
2019-05-29T19:35:08.934Z,42.61
2019-05-29T19:37:37.570Z,43.02
2019-05-29T19:40:07.248Z,44.20
2019-05-29T19:42:35.961Z,44.34
2019-05-29T19:45:07.528Z,44.50
2019-05-29T19:47:36.171Z,44.44
2019-05-29T19:50:10.220Z,44.79
2019-05-29T19:52:37.047Z,44.80
2019-05-29T19:55:09.186Z,44.91
2019-05-29T19:57:52.492Z,45.06
2019-05-29T20:00:10.641Z,45.10
2019-05-29T20:02:39.986Z,45.47
2019-05-29T20:05:08.899Z,45.52
2019-05-29T20:07:37.766Z,45.51
2019-05-29T20:10:09.125Z,45.64
2019-05-29T20:12:38.271Z,45.43
2019-05-29T20:15:07.535Z,45.38
2019-05-29T20:17:36.324Z,45.60
2019-05-29T20:20:06.778Z,45.91
2019-05-29T20:22:36.777Z,45.96
2019-05-29T20:25:07.633Z,46.05
2019-05-29T20:27:36.494Z,45.80
2019-05-29T20:30:06.218Z,45.62
2019-05-29T20:32:34.925Z,45.97
2019-05-29T20:35:04.571Z,46.01
2019-05-29T20:37:34.064Z,46.14
2019-05-29T20:40:02.825Z,46.07
2019-05-29T20:42:32.139Z,46.00
2019-05-29T20:45:00.899Z,46.03
2019-05-29T20:47:29.597Z,45.75
2019-05-29T20:49:58.328Z,45.73
2019-05-29T20:52:27.129Z,45.85
2019-05-29T20:54:58.717Z,46.14
2019-05-29T20:57:26.512Z,46.10
2019-05-29T20:59:55.206Z,46.01
2019-05-29T21:02:23.980Z,46.27
2019-05-29T21:04:52.652Z,46.10
2019-05-29T21:07:21.301Z,45.91
2019-05-29T21:09:50.055Z,45.61
2019-05-29T21:12:18.703Z,45.69
2019-05-29T21:14:47.355Z,45.71
2019-05-29T21:17:16.028Z,45.90
2019-05-29T21:19:44.854Z,45.71
2019-05-29T21:22:13.553Z,45.88
2019-05-29T21:24:49.421Z,46.28
2019-05-29T21:27:12.699Z,45.81
2019-05-29T21:29:41.350Z,45.85
2019-05-29T21:32:10.057Z,45.65
2019-05-29T21:34:39.764Z,45.58
2019-05-29T21:37:08.464Z,45.61
2019-05-29T21:39:38.322Z,45.24
2019-05-29T21:42:07.222Z,44.95
2019-05-29T21:44:36.624Z,44.81
2019-05-29T21:47:05.357Z,44.66
2019-05-29T21:49:33.989Z,44.23
2019-05-29T21:52:02.704Z,45.10
2019-05-29T21:54:31.429Z,45.28
2019-05-29T21:57:00.083Z,45.49
2019-05-29T21:59:28.736Z,45.58
2019-05-29T22:01:57.424Z,45.75
2019-05-29T22:04:26.085Z,46.08
2019-05-29T22:06:54.726Z,45.95
2019-05-29T22:09:23.477Z,46.27
2019-05-29T22:11:52.274Z,46.85
2019-05-29T22:14:20.944Z,46.99
2019-05-29T22:16:50.884Z,47.36
2019-05-29T22:19:19.533Z,47.43
2019-05-29T22:21:48.127Z,47.08
2019-05-29T22:24:16.902Z,46.74
2019-05-29T22:26:45.631Z,46.48
2019-05-29T22:29:18.172Z,46.48
2019-05-29T22:31:44.775Z,46.38
2019-05-29T22:34:13.424Z,46.09
2019-05-29T22:36:42.074Z,46.60
2019-05-29T22:39:10.794Z,46.64
2019-05-29T22:41:39.449Z,46.72
2019-05-29T22:44:08.160Z,46.79
2019-05-29T22:46:36.867Z,47.08
2019-05-29T22:49:05.507Z,47.30
2019-05-29T22:51:34.189Z,46.87
2019-05-29T22:54:03.020Z,47.07
2019-05-29T22:56:31.672Z,46.95
2019-05-29T22:59:00.339Z,46.70
2019-05-29T23:01:29.048Z,46.73
2019-05-29T23:03:58.246Z,46.63
2019-05-29T23:06:26.924Z,46.17
2019-05-29T23:08:56.262Z,45.98
2019-05-29T23:11:24.985Z,46.97
2019-05-29T23:13:54.237Z,46.87
2019-05-29T23:16:22.931Z,46.63
2019-05-29T23:18:52.405Z,46.44
2019-05-29T23:21:21.126Z,46.32
2019-05-29T23:23:49.780Z,46.85
2019-05-29T23:26:18.434Z,47.17
2019-05-29T23:28:47.210Z,45.86
2019-05-29T23:31:15.854Z,46.22
2019-05-29T23:33:44.510Z,45.81
2019-05-29T23:36:13.201Z,46.48
2019-05-29T23:38:41.878Z,46.42
2019-05-29T23:41:10.525Z,46.66
2019-05-29T23:43:39.383Z,46.69
2019-05-29T23:46:08.043Z,46.50
2019-05-29T23:48:36.687Z,46.04
2019-05-29T23:51:05.405Z,46.31
2019-05-29T23:53:34.047Z,46.44
2019-05-29T23:56:03.890Z,47.37
2019-05-29T23:58:32.606Z,47.79
